Time;durP1;ratioP1;P1;durP2;ratioP2;P2;SDS_P1;SDS_P2;PMS_P1;PMS_P2;Temp;Humidity;BMP_temperature;BMP_pressure;BME280_temperature;BME280_humidity;BME280_pressure;Samples;Min_cycle;Max_cycle;Signal;HPM_P1;HPM_P2
2021/03/01 00:00:14;;;;;;;16.37;11.22;;;;;;;2.55;84.36;103008.86;1749031;81;21061;-83
2021/03/01 00:02:43;;;;;;;18.02;11.08;;;;;;;2.53;84.40;103001.86;1725781;82;21605;-82
2021/03/01 00:05:11;;;;;;;13.50;10.15;;;;;;;2.51;84.46;103007.27;1748896;82;21213;-83
2021/03/01 00:07:39;;;;;;;16.23;11.65;;;;;;;2.50;84.48;103005.45;1724785;81;21900;-88
2021/03/01 00:10:07;;;;;;;14.78;10.10;;;;;;;2.49;84.44;103004.91;1694929;83;21154;-88
2021/03/01 00:12:34;;;;;;;17.80;11.38;;;;;;;2.47;84.49;103006.45;1723503;82;21163;-89
2021/03/01 00:15:01;;;;;;;13.50;9.38;;;;;;;2.48;84.58;103006.09;1723400;82;21150;-89
2021/03/01 00:17:28;;;;;;;15.35;10.82;;;;;;;2.47;84.51;103004.25;1723444;82;21195;-89
2021/03/01 00:19:55;;;;;;;16.05;11.12;;;;;;;2.47;84.66;103007.75;1723411;83;21896;-89
2021/03/01 00:22:22;;;;;;;16.82;10.85;;;;;;;2.45;84.55;103008.00;1723371;83;21168;-89
2021/03/01 00:24:49;;;;;;;16.60;12.23;;;;;;;2.44;84.62;103011.75;1723353;83;21728;-83
2021/03/01 00:27:16;;;;;;;15.55;10.90;;;;;;;2.43;84.59;103013.84;1722985;82;21305;-89
2021/03/01 00:29:43;;;;;;;17.07;11.75;;;;;;;2.41;84.58;103015.38;1723227;83;21151;-90
2021/03/01 00:32:10;;;;;;;16.97;11.33;;;;;;;2.39;84.63;103023.02;1723294;82;21902;-89
2021/03/01 00:34:37;;;;;;;15.38;11.08;;;;;;;2.38;84.72;103018.98;1723200;83;21631;-88
2021/03/01 00:37:04;;;;;;;17.35;11.33;;;;;;;2.39;84.85;103015.23;1723471;83;21168;-89
2021/03/01 00:39:32;;;;;;;14.85;10.70;;;;;;;2.40;84.83;103023.53;1723330;82;21156;-88
2021/03/01 00:42:03;;;;;;;13.28;9.40;;;;;;;2.38;84.79;103021.18;1723455;83;21269;-88
2021/03/01 00:44:31;;;;;;;14.55;11.03;;;;;;;2.39;84.89;103024.33;1723334;83;21690;-82
2021/03/01 00:46:58;;;;;;;16.10;10.68;;;;;;;2.43;85.04;103025.14;1722903;83;21227;-83
2021/03/01 00:49:25;;;;;;;15.10;10.85;;;;;;;2.44;85.03;103025.69;1722900;82;21180;-81
2021/03/01 00:51:57;;;;;;;13.72;9.13;;;;;;;2.45;85.01;103021.00;1722843;83;21232;-82
2021/03/01 00:54:24;;;;;;;13.20;10.00;;;;;;;2.46;84.87;103025.44;1723014;82;21136;-82
2021/03/01 00:56:51;;;;;;;12.43;9.03;;;;;;;2.48;84.88;103021.30;1723163;83;21956;-82
2021/03/01 00:59:18;;;;;;;11.85;9.20;;;;;;;2.47;84.90;103024.65;1722950;82;21344;-82
2021/03/01 01:01:45;;;;;;;11.22;9.03;;;;;;;2.49;84.88;103022.20;1723031;82;21634;-82
2021/03/01 01:04:12;;;;;;;12.90;10.00;;;;;;;2.51;84.85;103022.86;1723025;82;21133;-89
2021/03/01 01:06:46;;;;;;;11.80;9.10;;;;;;;2.50;84.71;103018.45;1723305;82;21172;-89
2021/03/01 01:09:14;;;;;;;11.03;9.10;;;;;;;2.48;84.65;103024.29;1725954;81;21899;-89
2021/03/01 01:11:41;;;;;;;11.05;9.78;;;;;;;2.46;84.64;103031.00;1726120;83;21167;-89
2021/03/01 01:14:08;;;;;;;11.55;8.95;;;;;;;2.45;84.72;103030.48;1726253;83;21315;-89
2021/03/01 01:16:35;;;;;;;12.47;8.83;;;;;;;2.46;84.80;103034.89;1726257;83;21163;-89
2021/03/01 01:19:05;;;;;;;13.48;9.90;;;;;;;2.43;84.82;103034.62;1726245;83;21546;-89
2021/03/01 01:21:32;;;;;;;10.80;9.53;;;;;;;2.40;84.79;103039.13;1726302;83;22101;-90
2021/03/01 01:23:59;;;;;;;12.50;9.45;;;;;;;2.37;84.78;103037.56;1726212;83;21282;-89
2021/03/01 01:26:26;;;;;;;13.60;9.65;;;;;;;2.37;84.81;103040.55;1726322;83;21214;-89
2021/03/01 01:28:53;;;;;;;11.75;8.98;;;;;;;2.35;84.83;103037.80;1726192;83;21199;-88
2021/03/01 01:31:20;;;;;;;13.25;9.40;;;;;;;2.37;85.01;103037.95;1726285;83;21223;-87
2021/03/01 01:33:55;;;;;;;9.50;8.48;;;;;;;2.37;85.08;103033.66;1726218;83;21895;-90
2021/03/01 01:36:22;;;;;;;13.08;9.13;;;;;;;2.37;85.02;103036.27;1726180;83;21609;-82
2021/03/01 01:38:49;;;;;;;13.80;9.03;;;;;;;2.36;85.01;103038.31;1725695;81;21160;-82
2021/03/01 01:41:17;;;;;;;11.85;8.83;;;;;;;2.38;85.15;103043.67;1725791;83;21215;-82
2021/03/01 01:43:44;;;;;;;13.22;9.95;;;;;;;2.39;85.19;103033.81;1725788;83;21235;-82
2021/03/01 01:46:15;;;;;;;13.78;9.85;;;;;;;2.41;85.23;103031.88;1725695;83;21907;-82
2021/03/01 01:48:42;;;;;;;13.32;9.80;;;;;;;2.38;85.13;103026.37;1725867;83;21288;-83
2021/03/01 01:51:09;;;;;;;14.30;9.75;;;;;;;2.37;85.15;103025.87;1725852;83;21112;-83
2021/03/01 01:53:37;;;;;;;14.05;10.68;;;;;;;2.36;85.06;103029.22;1725850;83;21163;-82
2021/03/01 01:56:04;;;;;;;14.10;9.35;;;;;;;2.32;85.06;103028.41;1726035;83;21135;-82
2021/03/01 01:58:31;;;;;;;10.50;9.00;;;;;;;2.30;85.09;103026.05;1725987;83;21143;-82
2021/03/01 02:00:58;;;;;;;12.90;9.70;;;;;;;2.28;85.15;103032.39;1725615;83;21218;-83
2021/03/01 02:04:06;;;;;;;12.35;9.53;;;;;;;2.25;85.08;103023.03;1725668;83;21171;-83
2021/03/01 02:06:47;;;;;;;13.50;9.43;;;;;;;2.23;85.12;103021.94;1721952;82;21446;-82
2021/03/01 02:09:36;;;;;;;12.75;10.08;;;;;;;2.22;85.13;103020.52;1748394;81;21223;-82
2021/03/01 02:12:31;;;;;;;12.68;9.75;;;;;;;2.20;85.16;103025.56;1748599;82;21899;-82
2021/03/01 02:15:06;;;;;;;14.18;9.85;;;;;;;2.20;85.19;103025.95;1718856;82;21231;-89
2021/03/01 02:17:33;;;;;;;11.85;9.35;;;;;;;2.19;85.25;103026.32;1749460;82;21172;-90
2021/03/01 02:20:14;;;;;;;11.57;9.45;;;;;;;2.20;85.24;103022.06;1749493;82;21248;-88
2021/03/01 02:22:43;;;;;;;13.05;9.15;;;;;;;2.16;85.24;103013.06;1749019;82;21220;-82
2021/03/01 02:25:13;;;;;;;10.15;8.68;;;;;;;2.17;85.33;103021.36;1748995;82;21900;-83
2021/03/01 02:28:02;;;;;;;11.15;9.10;;;;;;;2.17;85.41;103022.66;1749025;81;21181;-83
2021/03/01 02:30:35;;;;;;;14.13;9.53;;;;;;;2.20;85.53;103019.06;1749132;82;21188;-83
2021/03/01 02:33:10;;;;;;;12.05;8.78;;;;;;;2.23;85.62;103019.34;1742211;82;21211;-83
2021/03/01 02:35:52;;;;;;;9.93;7.83;;;;;;;2.26;85.56;103014.84;1748393;82;21156;-83
2021/03/01 02:38:23;;;;;;;12.75;8.55;;;;;;;2.24;85.52;103019.89;1748901;82;21840;-83
2021/03/01 02:40:50;;;;;;;13.05;8.58;;;;;;;2.22;85.54;103012.33;1749071;82;21144;-87
2021/03/01 02:43:17;;;;;;;10.63;8.13;;;;;;;2.22;85.54;103001.03;1717886;82;21172;-88
2021/03/01 02:45:44;;;;;;;11.78;8.35;;;;;;;2.20;85.47;102996.98;1749239;81;21434;-88
2021/03/01 02:48:12;;;;;;;10.53;8.08;;;;;;;2.18;85.41;102994.98;1742487;82;21124;-90
2021/03/01 02:50:40;;;;;;;9.83;7.90;;;;;;;2.14;85.33;103004.20;1749445;82;21147;-89
2021/03/01 02:53:07;;;;;;;13.00;8.33;;;;;;;2.11;85.39;103007.80;1749390;82;21128;-89
2021/03/01 02:55:34;;;;;;;10.25;7.72;;;;;;;2.09;85.44;103015.44;1749474;81;21192;-88
2021/03/01 02:58:02;;;;;;;10.88;7.50;;;;;;;2.07;85.39;103014.77;1749703;81;21141;-81
2021/03/01 03:00:29;;;;;;;10.55;7.75;;;;;;;2.04;85.46;103017.97;1748898;82;21267;-82
2021/03/01 03:02:56;;;;;;;12.18;8.55;;;;;;;2.03;85.51;103017.46;1748969;81;21899;-82
2021/03/01 03:05:24;;;;;;;12.37;8.98;;;;;;;2.03;85.64;103023.05;1749155;81;21196;-89
2021/03/01 03:07:51;;;;;;;11.88;8.90;;;;;;;2.05;85.64;103018.52;1746969;81;21212;-89
2021/03/01 03:10:18;;;;;;;11.78;8.55;;;;;;;2.06;85.72;103019.03;1715115;82;21127;-89
2021/03/01 03:12:45;;;;;;;13.68;7.80;;;;;;;2.08;85.76;103016.23;1703849;84;21200;-89
2021/03/01 03:15:18;;;;;;;13.32;8.93;;;;;;;2.11;85.82;103025.59;1703733;84;21868;-88
2021/03/01 03:17:45;;;;;;;12.27;8.97;;;;;;;2.13;85.84;103024.05;1703947;84;21248;-89
2021/03/01 03:20:13;;;;;;;10.98;8.43;;;;;;;2.15;85.76;103028.09;1703672;84;21801;-88
2021/03/01 03:22:40;;;;;;;15.00;8.75;;;;;;;2.17;85.80;103018.77;1703934;84;21741;-89
2021/03/01 03:25:09;;;;;;;15.05;9.73;;;;;;;2.20;85.78;103015.56;1704233;84;21239;-89
2021/03/01 03:27:36;;;;;;;13.38;8.58;;;;;;;2.23;85.84;103018.44;1703985;84;21894;-89
2021/03/01 03:30:15;;;;;;;11.10;8.83;;;;;;;2.32;85.99;103024.11;1704023;84;21161;-89
2021/03/01 03:32:42;;;;;;;11.28;8.75;;;;;;;2.39;85.95;103035.12;1703174;84;21153;-88
2021/03/01 03:35:11;;;;;;;11.25;8.43;;;;;;;2.48;86.03;103029.48;1703975;84;21209;-88
2021/03/01 03:37:42;;;;;;;10.00;7.95;;;;;;;2.56;85.92;103027.61;1703757;84;21196;-81
2021/03/01 03:40:11;;;;;;;10.72;7.95;;;;;;;2.61;85.83;103031.17;1703675;84;23061;-82
2021/03/01 03:42:38;;;;;;;9.50;7.60;;;;;;;2.67;85.77;103036.03;1703491;84;21242;-82
2021/03/01 03:45:07;;;;;;;8.70;7.25;;;;;;;2.73;85.71;103029.70;1703403;84;21283;-82
2021/03/01 03:47:34;;;;;;;9.35;7.70;;;;;;;2.79;85.63;103024.15;1703475;84;21605;-82
2021/03/01 03:50:02;;;;;;;9.78;7.62;;;;;;;2.85;85.58;103026.05;1703628;84;21578;-83
2021/03/01 03:52:32;;;;;;;10.60;7.83;;;;;;;2.88;85.46;103028.00;1703446;84;21977;-83
2021/03/01 03:54:59;;;;;;;10.65;8.15;;;;;;;2.89;85.41;103024.25;1703532;84;21155;-83
2021/03/01 03:57:29;;;;;;;10.95;8.43;;;;;;;2.96;85.40;103024.80;1703614;84;21171;-82
2021/03/01 03:59:56;;;;;;;10.40;8.25;;;;;;;3.01;85.33;103021.86;1703604;84;21764;-83
2021/03/01 04:02:23;;;;;;;9.50;7.80;;;;;;;3.04;85.15;103022.51;1703620;84;21630;-83
2021/03/01 04:04:51;;;;;;;9.58;7.87;;;;;;;3.08;85.12;103024.65;1703398;84;21907;-83
2021/03/01 04:07:19;;;;;;;8.98;7.25;;;;;;;3.10;84.99;103018.80;1704020;84;21177;-89
2021/03/01 04:09:46;;;;;;;10.80;7.83;;;;;;;3.13;84.93;103027.66;1720073;82;21620;-89
2021/03/01 04:12:13;;;;;;;8.55;6.97;;;;;;;3.16;84.83;103033.16;1726005;83;21079;-91
2021/03/01 04:14:40;;;;;;;8.53;6.65;;;;;;;3.17;84.77;103025.45;1725925;83;21195;-89
2021/03/01 04:17:10;;;;;;;7.95;6.55;;;;;;;3.18;84.68;103028.60;1725851;82;21904;-88
2021/03/01 04:19:37;;;;;;;8.08;7.10;;;;;;;3.20;84.66;103028.35;1725689;83;21799;-91
2021/03/01 04:22:04;;;;;;;9.18;7.15;;;;;;;3.20;84.52;103023.55;1725854;83;21248;-88
2021/03/01 04:24:31;;;;;;;8.30;7.10;;;;;;;3.20;84.54;103027.05;1725835;83;21167;-89
2021/03/01 04:27:01;;;;;;;9.15;7.17;;;;;;;3.22;84.53;103033.31;1725815;83;21163;-90
2021/03/01 04:29:28;;;;;;;8.90;6.65;;;;;;;3.21;84.52;103031.50;1725975;83;22108;-90
2021/03/01 04:31:55;;;;;;;7.00;6.20;;;;;;;3.25;84.50;103032.70;1725809;83;21226;-90
2021/03/01 04:34:22;;;;;;;8.58;7.10;;;;;;;3.28;84.54;103027.75;1726418;83;21144;-88
2021/03/01 04:36:49;;;;;;;7.72;6.53;;;;;;;3.30;84.44;103036.25;1725921;83;21136;-89
2021/03/01 04:39:17;;;;;;;8.00;6.25;;;;;;;3.31;84.38;103038.45;1749715;81;21136;-89
2021/03/01 04:41:46;;;;;;;7.60;6.28;;;;;;;3.33;84.34;103035.99;1749627;81;21898;-90
2021/03/01 04:44:15;;;;;;;7.62;6.58;;;;;;;3.32;84.21;103041.56;1749852;82;21160;-91
2021/03/01 04:46:44;;;;;;;8.63;6.85;;;;;;;3.30;84.16;103037.91;1749773;81;21649;-88
2021/03/01 04:49:11;;;;;;;7.60;6.37;;;;;;;3.30;84.15;103047.95;1749712;82;21204;-89
2021/03/01 04:51:40;;;;;;;9.40;6.42;;;;;;;3.31;84.13;103049.77;1749978;81;21172;-89
2021/03/01 04:54:08;;;;;;;6.92;5.67;;;;;;;3.33;84.14;103051.61;1695051;82;21911;-89
2021/03/01 04:56:37;;;;;;;7.67;6.15;;;;;;;3.35;84.11;103052.66;1718387;82;21196;-91
2021/03/01 04:59:04;;;;;;;6.70;5.85;;;;;;;3.35;83.98;103052.66;1767195;80;21158;-89
2021/03/01 05:01:32;;;;;;;7.80;6.10;;;;;;;3.37;84.01;103052.41;1787873;80;21179;-91
2021/03/01 05:03:59;;;;;;;8.25;6.78;;;;;;;3.39;83.96;103057.37;1757078;80;21611;-90
2021/03/01 05:06:26;;;;;;;6.33;5.72;;;;;;;3.38;83.88;103053.86;1787318;80;21935;-91
2021/03/01 05:08:53;;;;;;;7.92;6.58;;;;;;;3.38;83.88;103064.64;1787090;80;21570;-92
2021/03/01 05:11:33;;;;;;;8.53;6.78;;;;;;;3.38;83.85;103065.58;1787380;80;21123;-90
2021/03/01 05:14:01;;;;;;;12.13;9.73;;;;;;;3.38;83.80;103056.83;1786109;80;21207;-90
2021/03/01 05:16:28;;;;;;;18.95;13.30;;;;;;;3.37;83.75;103052.02;1787510;80;21119;-91
2021/03/01 05:18:55;;;;;;;17.60;12.43;;;;;;;3.37;83.78;103049.81;1787532;80;21882;-89
2021/03/01 05:21:23;;;;;;;10.25;8.50;;;;;;;3.38;83.79;103049.02;1787447;79;21124;-88
2021/03/01 05:23:50;;;;;;;9.58;8.08;;;;;;;3.38;83.75;103050.31;1787597;80;21602;-89
2021/03/01 05:26:17;;;;;;;7.85;6.85;;;;;;;3.38;83.71;103052.92;1787652;80;21143;-89
2021/03/01 05:28:44;;;;;;;9.33;6.65;;;;;;;3.37;83.69;103048.11;1787119;80;21163;-87
2021/03/01 05:31:11;;;;;;;10.13;7.28;;;;;;;3.35;83.60;103042.25;1786981;80;21884;-89
2021/03/01 05:33:42;;;;;;;7.33;6.58;;;;;;;3.36;83.67;103042.76;1787579;80;21166;-89
2021/03/01 05:36:09;;;;;;;8.93;6.90;;;;;;;3.39;83.66;103048.26;1787386;80;21641;-88
2021/03/01 05:38:36;;;;;;;8.15;6.97;;;;;;;3.38;83.61;103048.66;1787529;80;21164;-88
2021/03/01 05:41:03;;;;;;;7.72;6.50;;;;;;;3.37;83.55;103046.81;1787309;79;21613;-90
2021/03/01 05:43:30;;;;;;;8.05;6.53;;;;;;;3.40;83.59;103056.61;1787455;80;22866;-87
2021/03/01 05:45:59;;;;;;;7.08;6.10;;;;;;;3.40;83.57;103060.12;1787212;78;21131;-90
2021/03/01 05:48:27;;;;;;;7.72;6.62;;;;;;;3.40;83.47;103057.52;1787247;80;21618;-91
2021/03/01 05:51:03;;;;;;;7.35;5.58;;;;;;;3.41;83.53;103055.42;1787235;80;21175;-89
2021/03/01 05:53:34;;;;;;;6.65;5.83;;;;;;;3.41;83.49;103058.02;1787684;78;21120;-88
2021/03/01 05:56:01;;;;;;;7.12;6.00;;;;;;;3.43;83.44;103055.56;1787246;80;21713;-90
2021/03/01 05:58:28;;;;;;;10.13;5.97;;;;;;;3.40;83.32;103057.52;1766996;80;21390;-90
2021/03/01 06:01:00;;;;;;;11.38;7.33;;;;;;;3.41;83.40;103054.12;1760369;80;21215;-90
2021/03/01 06:03:32;;;;;;;12.07;7.85;;;;;;;3.43;83.30;103062.07;1772123;80;21474;-91
2021/03/01 06:06:01;;;;;;;9.25;6.90;;;;;;;3.43;83.32;103065.98;1776484;78;21096;-89
2021/03/01 06:08:30;;;;;;;8.80;6.40;;;;;;;3.44;83.26;103067.42;1776755;79;22105;-88
2021/03/01 06:11:00;;;;;;;10.08;7.03;;;;;;;3.42;83.09;103066.77;1724455;81;21355;-89
2021/03/01 06:13:31;;;;;;;10.63;6.45;;;;;;;3.41;83.18;103077.55;1753729;80;21218;-90
2021/03/01 06:16:54;;;;;;;8.63;6.12;;;;;;;3.42;83.12;103073.28;1758221;81;21175;-96
2021/03/01 06:19:53;;;;;;;9.25;6.10;;;;;;;3.42;83.14;103068.98;1757763;81;21120;-90
2021/03/01 06:22:23;;;;;;;9.30;5.83;;;;;;;3.41;83.02;103077.95;1754609;81;22100;-91
2021/03/01 06:25:12;;;;;;;9.73;6.25;;;;;;;3.45;83.07;103078.75;1734538;81;21590;-90
2021/03/01 06:28:04;;;;;;;9.90;7.40;;;;;;;3.46;82.93;103079.29;1757716;81;21187;-89
2021/03/01 06:30:37;;;;;;;9.78;6.45;;;;;;;3.49;82.97;103087.36;1757465;81;21202;-91
2021/03/01 06:33:19;;;;;;;6.95;5.92;;;;;;;3.51;82.94;103092.34;1752906;81;21140;-90
2021/03/01 06:35:49;;;;;;;10.55;7.85;;;;;;;3.58;83.03;103095.11;1757528;81;21892;-90
2021/03/01 06:38:25;;;;;;;7.80;6.40;;;;;;;3.66;83.04;103094.09;1757196;81;21168;-90
2021/03/01 06:41:19;;;;;;;22.27;14.18;;;;;;;3.69;83.04;103099.20;1757626;81;21159;-90
2021/03/01 06:43:57;;;;;;;11.20;9.33;;;;;;;3.77;82.84;103102.89;1757506;81;21152;-89
2021/03/01 06:46:29;;;;;;;9.03;6.28;;;;;;;3.83;82.79;103096.56;1757330;81;21152;-90
2021/03/01 06:48:58;;;;;;;7.35;6.20;;;;;;;3.89;82.68;103098.41;1757448;81;21894;-90
2021/03/01 06:51:27;;;;;;;15.08;8.68;;;;;;;3.94;82.63;103108.31;1756937;80;21204;-90
2021/03/01 06:53:58;;;;;;;12.85;7.95;;;;;;;4.01;82.67;103110.70;1702492;81;21605;-91
2021/03/01 06:56:43;;;;;;;9.05;6.65;;;;;;;4.08;82.64;103105.27;1758431;81;21607;-90
2021/03/01 06:59:38;;;;;;;8.75;7.20;;;;;;;4.16;82.58;103102.94;1757814;81;21582;-96
2021/03/01 07:02:08;;;;;;;39.38;22.67;;;;;;;4.22;82.30;103095.69;1758225;81;21893;-92
2021/03/01 07:04:35;;;;;;;25.20;16.42;;;;;;;4.33;82.48;103091.79;1757639;81;21159;-92
2021/03/01 07:07:03;;;;;;;24.98;16.93;;;;;;;4.43;82.32;103090.49;1753242;81;21574;-95
2021/03/01 07:09:35;;;;;;;14.40;10.43;;;;;;;4.50;82.17;103093.27;1758005;81;21667;-92
2021/03/01 07:12:03;;;;;;;8.60;7.00;;;;;;;4.54;82.00;103092.74;1758061;81;21141;-94
2021/03/01 07:14:30;;;;;;;10.38;8.28;;;;;;;4.62;82.10;103095.65;1752995;81;21899;-94
2021/03/01 07:16:59;;;;;;;14.18;8.93;;;;;;;4.74;82.06;103098.39;1757659;81;21168;-93
2021/03/01 07:19:32;;;;;;;9.45;6.80;;;;;;;4.81;81.92;103100.36;1757522;81;21456;-94
2021/03/01 07:22:01;;;;;;;9.13;6.62;;;;;;;4.86;81.86;103094.22;1757732;81;21184;-92
2021/03/01 07:24:29;;;;;;;7.53;6.30;;;;;;;4.98;81.81;103095.28;1757927;81;21136;-94
2021/03/01 07:27:01;;;;;;;12.18;6.95;;;;;;;5.08;81.70;103091.75;1757900;81;21875;-95
2021/03/01 07:29:37;;;;;;;8.00;6.27;;;;;;;5.17;81.63;103099.45;1757966;81;21160;-93
2021/03/01 07:32:08;;;;;;;8.28;5.75;;;;;;;5.24;81.60;103093.58;1757623;81;21148;-92
2021/03/01 07:34:36;;;;;;;6.95;5.67;;;;;;;5.35;81.64;103094.84;1757727;81;21192;-92
2021/03/01 07:37:10;;;;;;;7.28;5.72;;;;;;;5.45;81.39;103090.94;1757619;81;21093;-95
2021/03/01 07:42:22;;;;;;;7.63;6.03;;;;;;;5.66;81.15;103082.65;1889715;76;22821;-88
2021/03/01 07:44:49;;;;;;;12.25;7.05;;;;;;;5.70;81.11;103091.66;1857684;77;21779;-88
2021/03/01 07:47:16;;;;;;;7.47;6.35;;;;;;;5.83;81.20;103085.34;1799219;77;22028;-88
2021/03/01 07:49:49;;;;;;;9.10;6.83;;;;;;;5.97;81.04;103086.11;1857650;76;21116;-89
2021/03/01 07:52:31;;;;;;;7.90;6.30;;;;;;;6.09;80.87;103086.59;1858217;77;21032;-87
2021/03/01 07:55:09;;;;;;;4.67;4.15;;;;;;;6.19;80.65;103077.37;1857935;77;21154;-89
2021/03/01 07:57:38;;;;;;;21.75;15.00;;;;;;;6.28;80.50;103078.11;1857735;77;21545;-88
2021/03/01 08:00:28;;;;;;;21.07;13.95;;;;;;;6.39;80.25;103081.58;1857614;77;21813;-88
2021/03/01 08:02:55;;;;;;;11.33;8.75;;;;;;;6.47;80.09;103081.78;1857479;77;21123;-87
2021/03/01 08:05:29;;;;;;;12.73;9.85;;;;;;;6.54;79.96;103082.79;1857863;77;21111;-89
2021/03/01 08:07:58;;;;;;;11.50;8.90;;;;;;;6.62;79.88;103092.55;1857820;77;21810;-89
2021/03/01 08:10:33;;;;;;;10.23;8.18;;;;;;;6.67;79.58;103085.98;1857724;75;21661;-89
2021/03/01 08:13:03;;;;;;;9.73;7.97;;;;;;;6.70;79.35;103091.47;1827457;77;21878;-89
2021/03/01 08:15:43;;;;;;;9.00;6.95;;;;;;;6.76;79.28;103095.86;1857324;77;21683;-89
2021/03/01 08:18:12;;;;;;;6.83;6.00;;;;;;;6.78;78.94;103092.06;1857920;77;21559;-89
2021/03/01 08:20:46;;;;;;;7.60;6.20;;;;;;;6.84;79.30;103085.98;1857858;77;21578;-88
2021/03/01 08:23:14;;;;;;;6.47;5.60;;;;;;;6.98;79.22;103089.66;1851849;77;21071;-89
2021/03/01 08:25:51;;;;;;;7.28;6.45;;;;;;;7.07;79.13;103078.59;1858370;77;21856;-89
2021/03/01 08:28:27;;;;;;;8.63;5.97;;;;;;;7.11;78.73;103082.35;1857721;77;21648;-89
2021/03/01 08:30:59;;;;;;;7.50;6.20;;;;;;;6.99;78.17;103081.92;1857810;77;21732;-87
2021/03/01 08:33:26;;;;;;;7.40;6.35;;;;;;;6.92;78.26;103087.89;1853203;77;21600;-86
2021/03/01 08:36:04;;;;;;;8.43;6.85;;;;;;;6.84;78.31;103081.16;1857324;77;21139;-86
2021/03/01 08:38:54;;;;;;;10.03;8.40;;;;;;;6.87;78.53;103086.61;1839089;77;21906;-87
2021/03/01 08:41:37;;;;;;;17.82;12.37;;;;;;;6.91;78.48;103089.59;1855782;77;21110;-87
2021/03/01 08:44:21;;;;;;;17.35;11.90;;;;;;;6.93;78.30;103094.96;1857649;76;21139;-86
2021/03/01 08:46:49;;;;;;;11.10;8.48;;;;;;;6.91;78.23;103093.94;1857471;77;21602;-86
2021/03/01 08:49:23;;;;;;;9.83;7.62;;;;;;;6.86;77.97;103092.25;1857686;77;21119;-86
2021/03/01 08:51:50;;;;;;;9.93;6.92;;;;;;;6.82;78.02;103087.58;1826814;77;21893;-86
2021/03/01 08:54:29;;;;;;;17.73;10.40;;;;;;;6.75;77.95;103086.17;1856805;77;21642;-86
2021/03/01 08:57:07;;;;;;;45.17;22.37;;;;;;;6.70;77.99;103094.09;1856871;77;21609;-86
2021/03/01 08:59:34;;;;;;;60.20;29.27;;;;;;;6.60;77.92;103085.88;1855479;77;21120;-86
2021/03/01 09:02:01;;;;;;;84.22;43.83;;;;;;;6.59;78.17;103091.92;1780118;80;21200;-87
2021/03/01 09:04:28;;;;;;;60.15;34.15;;;;;;;6.58;78.17;103091.39;1781528;80;21899;-87
2021/03/01 09:07:08;;;;;;;31.00;19.07;;;;;;;6.55;78.17;103083.69;1779862;80;21572;-86
2021/03/01 09:09:51;;;;;;;18.42;12.18;;;;;;;6.51;78.17;103081.23;1781499;80;21176;-86
2021/03/01 09:12:19;;;;;;;33.55;18.87;;;;;;;6.49;78.34;103084.53;1780581;80;21175;-86
2021/03/01 09:14:47;;;;;;;51.30;25.75;;;;;;;6.48;78.44;103079.70;1781886;80;21182;-87
2021/03/01 09:17:14;;;;;;;20.52;12.88;;;;;;;6.53;78.52;103072.20;1780844;80;21896;-87
2021/03/01 09:19:41;;;;;;;45.85;29.57;;;;;;;6.56;78.51;103073.76;1782461;80;21175;-87
2021/03/01 09:22:08;;;;;;;13.15;8.98;;;;;;;6.60;78.56;103068.87;1780587;80;21191;-87
2021/03/01 09:24:35;;;;;;;15.15;10.82;;;;;;;6.65;78.60;103070.56;1782279;80;21129;-87
2021/03/01 09:27:03;;;;;;;55.58;32.33;;;;;;;6.71;78.70;103066.20;1780237;80;21662;-87
2021/03/01 09:29:32;;;;;;;16.00;9.93;;;;;;;6.78;78.59;103077.26;1781703;80;21892;-87
2021/03/01 09:32:00;;;;;;;30.00;18.77;;;;;;;6.83;78.39;103076.70;1779889;80;21167;-86
2021/03/01 09:34:28;;;;;;;69.80;44.15;;;;;;;6.86;78.28;103074.33;1809814;79;21161;-87
2021/03/01 09:36:56;;;;;;;20.92;14.35;;;;;;;6.88;78.22;103070.13;1780319;80;21132;-86
2021/03/01 09:39:36;;;;;;;12.23;8.85;;;;;;;6.91;78.23;103067.34;1780032;80;21168;-87
2021/03/01 09:42:00;;;;;;;44.45;29.07;;;;;;;6.96;78.17;103068.99;1777376;80;21900;-87
2021/03/01 09:44:30;;;;;;;12.05;9.08;;;;;;;7.01;78.25;103065.94;1780528;80;21258;-87
2021/03/01 09:46:59;;;;;;;36.40;26.93;;;;;;;7.08;78.22;103061.19;1780586;80;21212;-88
2021/03/01 09:49:28;;;;;;;73.57;52.53;;;;;;;7.12;78.19;103064.14;1781780;80;21185;-87
2021/03/01 09:51:55;;;;;;;45.48;35.45;;;;;;;7.18;78.08;103058.05;1780263;80;21137;-88
2021/03/01 09:54:23;;;;;;;19.20;15.08;;;;;;;7.23;78.04;103060.13;1781534;80;21953;-88
2021/03/01 09:56:53;;;;;;;14.70;11.97;;;;;;;7.27;77.95;103058.25;1752066;80;21181;-87
2021/03/01 09:59:32;;;;;;;32.20;25.75;;;;;;;7.33;78.08;103063.54;1781687;80;21173;-88
2021/03/01 10:02:17;;;;;;;63.23;43.40;;;;;;;7.39;78.01;103060.09;1780027;80;21191;-88
2021/03/01 10:04:44;;;;;;;24.50;17.70;;;;;;;7.48;78.03;103059.84;1775327;80;21623;-86
2021/03/01 10:07:23;;;;;;;31.73;23.07;;;;;;;7.54;77.90;103055.05;1752473;80;21896;-87
2021/03/01 10:09:51;;;;;;;29.32;21.48;;;;;;;7.61;77.95;103055.12;1781616;80;21181;-86
2021/03/01 10:12:20;;;;;;;37.23;28.83;;;;;;;7.68;77.81;103050.85;1780525;80;21134;-87
2021/03/01 10:14:48;;;;;;;11.80;8.45;;;;;;;7.72;77.71;103045.03;1781684;80;21145;-87
2021/03/01 10:17:17;;;;;;;26.17;21.10;;;;;;;7.79;77.61;103054.27;1780553;80;21177;-87
2021/03/01 10:19:44;;;;;;;17.80;12.30;;;;;;;7.85;77.35;103049.87;1782567;80;21898;-87
2021/03/01 10:22:13;;;;;;;9.08;6.83;;;;;;;7.88;77.28;103048.39;1780497;80;21221;-86
2021/03/01 10:24:50;;;;;;;10.40;6.15;;;;;;;7.95;77.24;103049.73;1753896;80;21156;-88
2021/03/01 10:27:18;;;;;;;8.35;6.25;;;;;;;8.00;77.05;103055.33;1780506;80;21152;-87
2021/03/01 10:29:50;;;;;;;8.45;7.15;;;;;;;8.05;76.98;103049.98;1781682;80;21192;-87
2021/03/01 10:32:21;;;;;;;16.02;10.93;;;;;;;8.10;76.95;103048.20;1780440;80;21880;-88
2021/03/01 10:34:49;;;;;;;11.55;8.50;;;;;;;8.16;77.03;103049.05;1781957;80;21243;-87
2021/03/01 10:37:18;;;;;;;14.15;8.98;;;;;;;8.25;77.04;103053.64;1780985;80;21152;-87
2021/03/01 10:39:48;;;;;;;11.10;8.20;;;;;;;8.31;76.81;103057.11;1728569;80;21614;-87
2021/03/01 10:45:03;;;;;;;10.40;8.25;;;;;;;8.47;76.58;103049.97;1811758;78;22574;-88
2021/03/01 10:47:34;;;;;;;9.95;8.63;;;;;;;8.46;76.58;103057.31;1790117;79;21148;-87
2021/03/01 10:50:26;;;;;;;11.00;8.78;;;;;;;8.47;76.46;103052.59;1797434;79;21888;-87
2021/03/01 10:53:12;;;;;;;11.25;8.50;;;;;;;8.46;76.29;103051.66;1693778;84;21266;-86
2021/03/01 10:55:41;;;;;;;10.35;8.23;;;;;;;8.46;76.22;103050.75;1697648;84;21235;-86
2021/03/01 10:58:14;;;;;;;9.35;8.10;;;;;;;8.47;76.29;103052.19;1652067;84;21342;-87
2021/03/01 11:00:41;;;;;;;13.10;10.32;;;;;;;8.47;76.23;103052.19;1697405;84;21230;-86
2021/03/01 11:03:09;;;;;;;8.30;7.10;;;;;;;8.51;76.24;103050.28;1697154;84;21904;-87
2021/03/01 11:05:36;;;;;;;11.57;8.83;;;;;;;8.55;76.25;103043.53;1703882;84;21241;-88
2021/03/01 11:08:04;;;;;;;11.22;8.08;;;;;;;8.61;76.18;103036.48;1697568;84;21199;-87
2021/03/01 11:10:32;;;;;;;9.85;7.67;;;;;;;8.65;76.01;103033.27;1697509;84;21246;-87
2021/03/01 11:13:00;;;;;;;10.98;8.80;;;;;;;8.68;75.96;103037.02;1697566;84;21187;-87
2021/03/01 11:15:27;;;;;;;10.72;8.13;;;;;;;8.73;75.88;103034.73;1697511;84;21896;-87
2021/03/01 11:17:54;;;;;;;10.03;7.25;;;;;;;8.75;75.75;103034.02;1697130;84;21192;-87
2021/03/01 11:20:21;;;;;;;15.43;8.70;;;;;;;8.80;75.76;103029.47;1697369;83;21073;-87
2021/03/01 11:22:48;;;;;;;7.95;7.03;;;;;;;8.85;75.73;103025.05;1697278;84;21642;-87
2021/03/01 11:25:15;;;;;;;9.53;7.97;;;;;;;8.89;75.65;103020.50;1697536;84;21619;-87
2021/03/01 11:27:42;;;;;;;13.28;9.10;;;;;;;8.93;75.54;103021.25;1697473;84;22817;-87
2021/03/01 11:30:15;;;;;;;13.25;9.85;;;;;;;8.97;75.54;103024.06;1754827;79;21787;-87
2021/03/01 11:32:41;;;;;;;13.90;9.23;;;;;;;9.04;75.67;103019.73;1797281;79;21168;-87
2021/03/01 11:35:10;;;;;;;12.18;10.05;;;;;;;9.10;75.64;103017.52;1797145;79;21136;-87
2021/03/01 11:37:39;;;;;;;11.68;9.18;;;;;;;9.17;75.63;103018.85;1797413;79;21123;-87
2021/03/01 11:40:08;;;;;;;10.00;8.35;;;;;;;9.21;75.44;103008.63;1797245;79;22939;-88
2021/03/01 11:42:35;;;;;;;9.15;8.18;;;;;;;9.26;75.27;103008.95;1797313;79;21180;-87
2021/03/01 11:45:03;;;;;;;11.25;8.88;;;;;;;9.27;75.10;103005.13;1789048;79;21176;-88
2021/03/01 11:47:35;;;;;;;11.22;8.03;;;;;;;9.28;74.95;102997.73;1788590;80;21718;-88